Big Rapids, MI

10:35 PM EDT on September 29, 2016 (GMT -0400)
Roben-Hood

Weather History for KRQB - November, 2010

Change the Weather History Date:

Thursday, November 18, 2010

  Actual Average Record
Temperature  
Mean Temperature 34 °F -  
Max Temperature 37 °F 45 °F 67 °F (1975)
Min Temperature 30 °F 28 °F 8 °F (2008)
Degree Days  
Heating Degree Days 32    
Moisture  
Dew Point 31 °F    
Average Humidity 85    
Maximum Humidity 100    
Minimum Humidity 70    
Precipitation  
Precipitation 0.00 in - - ()
Sea Level Pressure  
Sea Level Pressure 30.16 in    
Wind  
Wind Speed 7 mph (NW)    
Max Wind Speed 13 mph    
Max Gust Speed 18 mph    
Visibility 10 miles    
Events      
Averages and records for this station are not official NWS values.
T = Trace of Precipitation, MM = Missing Value Source: NWS Daily Summary

Daily Weather History Graph

Daily Weather History Graph

Search for Another Location

Airport or City:

Trip Planner

Search our weather history database for the weather conditions in past years. The results will help you decide how hot, cold, wet, or windy it might be!

Date:

Astronomy

Nov. 18, 2010 Rise Set
Actual Time 7:40 AM EST 5:13 PM EST
Civil Twilight 7:08 AM EST 5:45 PM EST
Nautical Twilight 6:33 AM EST 6:20 PM EST
Astronomical Twilight 5:59 AM EST 6:54 PM EST
Moon 3:15 PM EST (11/18) 4:32 AM EST (11/18)
Length of Visible Light 10h 36m
Length of Day
9h 33m
Waxing Gibbous, 91% of the Moon is Illuminated
Nov 18
Waxing Gibbous
Nov 21
Full
Nov 28
Last Quarter
Dec 5
New
Dec 13
First Quarter

Hourly Weather History & Observations

Time (EST) Temp. Windchill Dew Point Humidity Pressure Visibility Wind Dir Wind Speed Gust Speed Precip Events Conditions
12:35 AM 37.4 °F 32.1 °F 35.6 °F 93% 30.08 in 10.0 mi West 6.9 mph - N/A   Overcast
12:54 AM 37.4 °F 30.8 °F 35.6 °F 93% 30.09 in 10.0 mi WNW 9.2 mph - N/A   Overcast
1:15 AM 37.4 °F 31.4 °F 35.6 °F 93% 30.09 in 10.0 mi NW 8.1 mph - N/A   Overcast
1:35 AM 35.6 °F 30.7 °F 35.6 °F 100% 30.08 in 10.0 mi NW 5.8 mph - N/A   Overcast
1:55 AM 35.6 °F 31.7 °F 35.6 °F 100% 30.09 in 10.0 mi NW 4.6 mph - N/A   Overcast
2:15 AM 35.6 °F 29.2 °F 35.6 °F 100% 30.10 in 10.0 mi NW 8.1 mph - N/A   Overcast
2:34 AM 35.6 °F 29.2 °F 35.6 °F 100% 30.10 in 10.0 mi NW 8.1 mph - N/A   Overcast
2:55 AM 35.6 °F 28.6 °F 33.8 °F 93% 30.11 in 10.0 mi NNW 9.2 mph - N/A   Overcast
3:15 AM 35.6 °F 29.2 °F 33.8 °F 93% 30.11 in 10.0 mi NW 8.1 mph - N/A   Overcast
3:34 AM 35.6 °F 30.7 °F 33.8 °F 93% 30.11 in 10.0 mi NNW 5.8 mph - N/A   Overcast
3:55 AM 35.6 °F 31.7 °F 33.8 °F 93% 30.11 in 10.0 mi NW 4.6 mph - N/A   Overcast
4:15 AM 35.6 °F 29.9 °F 33.8 °F 93% 30.11 in 10.0 mi NW 6.9 mph - N/A   Overcast
4:35 AM 33.8 °F 27.7 °F 32.0 °F 93% 30.11 in 10.0 mi WNW 6.9 mph - N/A   Scattered Clouds
4:55 AM 33.8 °F 27.7 °F 32.0 °F 93% 30.12 in 10.0 mi WNW 6.9 mph - N/A   Mostly Cloudy
5:15 AM 32.0 °F 26.4 °F 32.0 °F 100% 30.12 in 10.0 mi WNW 5.8 mph - N/A   Mostly Cloudy
5:35 AM 32.0 °F 27.5 °F 32.0 °F 100% 30.12 in 10.0 mi NW 4.6 mph - N/A   Mostly Cloudy
5:55 AM 32.0 °F 27.5 °F 32.0 °F 100% 30.12 in 10.0 mi NW 4.6 mph - N/A   Scattered Clouds
6:14 AM 32.0 °F 27.5 °F 30.2 °F 93% 30.12 in 10.0 mi WNW 4.6 mph - N/A   Clear
6:35 AM 30.2 °F 24.3 °F 30.2 °F 100% 30.13 in 10.0 mi WNW 5.8 mph - N/A   Scattered Clouds
6:55 AM 32.0 °F 26.4 °F 32.0 °F 100% 30.14 in 10.0 mi WNW 5.8 mph - N/A   Overcast
7:15 AM 33.8 °F 28.6 °F 33.8 °F 100% 30.14 in 10.0 mi West 5.8 mph - N/A   Overcast
7:35 AM 33.8 °F 27.7 °F 32.0 °F 93% 30.15 in 10.0 mi WNW 6.9 mph - N/A   Overcast
7:55 AM 33.8 °F 28.6 °F 32.0 °F 93% 30.15 in 10.0 mi West 5.8 mph - N/A   Overcast
8:15 AM 33.8 °F 29.6 °F 32.0 °F 93% 30.15 in 10.0 mi WNW 4.6 mph - N/A   Overcast
8:35 AM 33.8 °F 29.6 °F 32.0 °F 93% 30.16 in 10.0 mi West 4.6 mph - N/A   Overcast
8:55 AM 33.8 °F 29.6 °F 32.0 °F 93% 30.16 in 10.0 mi WNW 4.6 mph - N/A   Overcast
9:15 AM 35.6 °F 31.7 °F 32.0 °F 87% 30.16 in 10.0 mi WNW 4.6 mph - N/A   Overcast
9:35 AM 35.6 °F 30.7 °F 32.0 °F 87% 30.17 in 10.0 mi WNW 5.8 mph - N/A   Overcast
9:55 AM 35.6 °F 29.9 °F 32.0 °F 87% 30.17 in 10.0 mi WNW 6.9 mph - N/A   Overcast
10:14 AM 35.6 °F 29.9 °F 32.0 °F 87% 30.17 in 10.0 mi WNW 6.9 mph - N/A   Overcast
10:35 AM 35.6 °F 30.7 °F 32.0 °F 87% 30.18 in 10.0 mi WNW 5.8 mph - N/A   Overcast
10:55 AM 35.6 °F 29.9 °F 32.0 °F 87% 30.19 in 10.0 mi NW 6.9 mph - N/A   Overcast
11:15 AM 35.6 °F 29.9 °F 30.2 °F 81% 30.19 in 10.0 mi WNW 6.9 mph - N/A   Overcast
11:35 AM 37.4 °F 30.8 °F 30.2 °F 75% 30.19 in 10.0 mi NW 9.2 mph - N/A   Overcast
11:55 AM 37.4 °F 30.8 °F 30.2 °F 75% 30.19 in 10.0 mi NNW 9.2 mph - N/A   Overcast
12:14 PM 37.4 °F 30.8 °F 30.2 °F 75% 30.19 in 10.0 mi NW 9.2 mph - N/A   Overcast
12:35 PM 35.6 °F 28.6 °F 30.2 °F 81% 30.19 in 10.0 mi North 9.2 mph - N/A   Overcast
12:55 PM 35.6 °F 30.7 °F 30.2 °F 81% 30.18 in 10.0 mi NNW 5.8 mph - N/A   Overcast
1:14 PM 37.4 °F 32.1 °F 30.2 °F 75% 30.18 in 10.0 mi North 6.9 mph - N/A   Overcast
1:35 PM 37.4 °F 29.8 °F 28.4 °F 70% 30.18 in 10.0 mi NW 11.5 mph - N/A   Overcast
1:55 PM 37.4 °F 32.1 °F 28.4 °F 70% 30.18 in 10.0 mi NNW 6.9 mph - N/A   Overcast
2:15 PM 37.4 °F 29.8 °F 28.4 °F 70% 30.18 in 10.0 mi NNW 11.5 mph - N/A   Overcast
2:35 PM 37.4 °F 30.3 °F 28.4 °F 70% 30.19 in 10.0 mi NNW 10.4 mph - N/A   Overcast
2:55 PM 35.6 °F 27.1 °F 26.6 °F 70% 30.19 in 10.0 mi NNW 12.7 mph 17.3 mph N/A   Overcast
3:15 PM 35.6 °F 27.1 °F 26.6 °F 70% 30.20 in 10.0 mi NNW 12.7 mph - N/A   Overcast
3:35 PM 35.6 °F 29.2 °F 26.6 °F 70% 30.21 in 10.0 mi NNW 8.1 mph 16.1 mph N/A   Overcast
3:54 PM 35.6 °F 29.2 °F 26.6 °F 70% 30.21 in 10.0 mi NNW 8.1 mph - N/A   Overcast
4:15 PM 35.6 °F 27.5 °F 26.6 °F 70% 30.21 in 10.0 mi NW 11.5 mph 18.4 mph N/A   Overcast
4:34 PM 33.8 °F 26.4 °F 26.6 °F 75% 30.22 in 10.0 mi NNW 9.2 mph 16.1 mph N/A   Overcast
5:15 PM 33.8 °F 27.0 °F 24.8 °F 70% 30.23 in 10.0 mi NNW 8.1 mph - N/A   Overcast
5:34 PM 33.8 °F 28.6 °F 24.8 °F 70% 30.23 in 10.0 mi NNW 5.8 mph - N/A   Overcast
6:15 PM 33.8 °F 28.6 °F 24.8 °F 70% 30.23 in 10.0 mi NNW 5.8 mph - N/A   Overcast
6:34 PM 32.0 °F 25.6 °F 24.8 °F 75% 30.24 in 10.0 mi NNW 6.9 mph - N/A   Overcast
6:55 PM 32.0 °F 27.5 °F 24.8 °F 75% 30.24 in 10.0 mi NNW 4.6 mph - N/A   Overcast
7:14 PM 32.0 °F 28.7 °F 24.8 °F 75% 30.25 in 10.0 mi NNW 3.5 mph - N/A   Overcast
7:35 PM 32.0 °F 27.5 °F 23.0 °F 69% 30.24 in 10.0 mi NNW 4.6 mph - N/A   Overcast
7:55 PM 32.0 °F 28.7 °F 23.0 °F 69% 30.25 in 10.0 mi North 3.5 mph - N/A   Overcast
8:14 PM 32.0 °F 27.5 °F 23.0 °F 69% 30.25 in 10.0 mi North 4.6 mph - N/A   Overcast
8:35 PM 32.0 °F 27.5 °F 21.2 °F 64% 30.25 in 10.0 mi NNW 4.6 mph - N/A   Overcast
8:55 PM 32.0 °F 27.5 °F 21.2 °F 64% 30.26 in 10.0 mi North 4.6 mph - N/A   Overcast
9:35 PM 32.0 °F - 21.2 °F 64% 30.26 in 10.0 mi Calm Calm - N/A   Overcast
9:54 PM 32.0 °F - 21.2 °F 64% 30.26 in 10.0 mi Calm Calm - N/A   Overcast
10:15 PM 32.0 °F - 21.2 °F 64% 30.26 in 10.0 mi Calm Calm - N/A   Overcast
10:35 PM 32.0 °F - 24.8 °F 75% 30.26 in 10.0 mi Calm Calm - N/A   Overcast
10:54 PM 32.0 °F - 24.8 °F 75% 30.26 in 10.0 mi Calm Calm - N/A   Overcast
11:15 PM 32.0 °F - 24.8 °F 75% 30.25 in 10.0 mi Calm Calm - N/A   Overcast
11:34 PM 30.2 °F - 26.6 °F 86% 30.25 in 10.0 mi Calm Calm - N/A   Overcast
11:55 PM 30.2 °F - 26.6 °F 86% 30.25 in 10.0 mi Calm Calm - N/A   Overcast